Time;durP1;ratioP1;P1;durP2;ratioP2;P2;SDS_P1;SDS_P2;PMS_P1;PMS_P2;Temp;Humidity;BMP_temperature;BMP_pressure;BME280_temperature;BME280_humidity;BME280_pressure;Samples;Min_cycle;Max_cycle;Signal;HPM_P1;HPM_P2
2022/06/20 00:00:22;;;;;;;5.90;2.90;;;17.20;99.90;;;;;;5015347;28;20634;-56
2022/06/20 00:02:55;;;;;;;3.35;2.78;;;17.30;99.90;;;;;;5014997;28;20168;-56
2022/06/20 00:05:27;;;;;;;6.30;3.53;;;17.40;99.90;;;;;;5015048;28;20278;-57
2022/06/20 00:07:53;;;;;;;5.82;3.25;;;17.40;99.90;;;;;;5015149;28;20214;-56
2022/06/20 00:10:21;;;;;;;4.53;3.55;;;17.40;99.90;;;;;;5015167;28;20248;-56
2022/06/20 00:12:47;;;;;;;4.72;4.03;;;17.30;99.90;;;;;;5015074;28;20172;-57
2022/06/20 00:15:34;;;;;;;6.22;3.85;;;17.40;99.90;;;;;;5014957;28;20588;-56
2022/06/20 00:18:02;;;;;;;4.60;3.50;;;17.30;99.90;;;;;;5014916;28;20168;-57
2022/06/20 00:20:29;;;;;;;6.03;4.35;;;17.30;99.90;;;;;;5015003;28;20195;-56
2022/06/20 00:22:55;;;;;;;7.03;3.85;;;17.20;99.90;;;;;;5014803;28;20301;-57
2022/06/20 00:25:22;;;;;;;7.10;3.50;;;17.20;99.90;;;;;;5014857;28;20203;-56
2022/06/20 00:27:48;;;;;;;7.65;3.50;;;17.20;99.90;;;;;;5014789;28;20654;-57
2022/06/20 00:30:16;;;;;;;6.97;3.42;;;17.10;99.90;;;;;;5014741;28;20172;-57
2022/06/20 00:32:41;;;;;;;6.57;3.75;;;17.20;99.90;;;;;;5014790;28;20164;-57
2022/06/20 00:35:08;;;;;;;6.72;3.60;;;17.20;99.90;;;;;;5014610;28;20178;-56
2022/06/20 00:37:34;;;;;;;6.00;3.10;;;17.30;99.90;;;;;;5014950;28;20196;-58
2022/06/20 00:40:00;;;;;;;4.35;3.13;;;17.40;99.90;;;;;;5014585;28;20196;-57
2022/06/20 00:42:27;;;;;;;5.57;2.83;;;17.40;99.90;;;;;;5014792;28;20586;-57
2022/06/20 00:45:01;;;;;;;8.55;3.63;;;17.40;99.90;;;;;;5014471;28;20208;-56
2022/06/20 00:47:31;;;;;;;4.90;3.20;;;17.40;99.90;;;;;;5014448;28;20571;-57
2022/06/20 00:50:20;;;;;;;5.85;3.13;;;17.40;99.90;;;;;;5014318;28;20270;-57
2022/06/20 00:52:51;;;;;;;3.10;2.50;;;17.60;99.90;;;;;;5014247;28;20626;-57
2022/06/20 00:55:23;;;;;;;5.85;2.95;;;17.50;99.90;;;;;;5013444;28;20168;-57
2022/06/20 00:58:02;;;;;;;3.42;3.13;;;17.50;99.90;;;;;;5014245;28;20160;-57
2022/06/20 01:00:33;;;;;;;5.47;3.20;;;17.60;99.90;;;;;;5014708;28;20179;-57
2022/06/20 01:03:06;;;;;;;4.55;3.15;;;17.70;99.90;;;;;;5014054;28;20566;-57
2022/06/20 01:05:41;;;;;;;4.72;2.85;;;17.80;99.90;;;;;;5014162;28;20215;-58
2022/06/20 01:08:18;;;;;;;3.90;3.15;;;17.50;99.90;;;;;;5013870;28;20175;-56
2022/06/20 01:10:50;;;;;;;6.97;3.60;;;17.30;99.90;;;;;;5014009;28;20168;-56
2022/06/20 01:13:19;;;;;;;5.43;3.70;;;17.00;99.90;;;;;;5013938;28;20165;-56
2022/06/20 01:15:47;;;;;;;7.47;3.40;;;16.70;99.90;;;;;;5013835;28;20260;-57
2022/06/20 01:18:31;;;;;;;6.50;3.55;;;16.70;99.90;;;;;;4996294;28;20549;-56
2022/06/20 01:20:59;;;;;;;6.28;3.42;;;16.60;99.90;;;;;;5013802;28;20160;-56
2022/06/20 01:23:43;;;;;;;12.68;3.83;;;16.60;99.90;;;;;;5013679;28;20194;-56
2022/06/20 01:26:46;;;;;;;5.15;3.13;;;16.60;99.90;;;;;;5013618;28;20203;-56
2022/06/20 01:29:13;;;;;;;6.78;4.28;;;16.60;99.90;;;;;;5013662;28;20180;-57
2022/06/20 01:31:45;;;;;;;8.27;4.30;;;16.60;99.90;;;;;;5013520;28;20222;-57
2022/06/20 01:34:13;;;;;;;8.23;4.15;;;16.70;99.90;;;;;;5013604;28;20160;-57
2022/06/20 01:39:26;;;;;;;5.10;4.18;;;16.70;99.90;;;;;;5013425;28;20171;-56
2022/06/20 01:45:04;;;;;;;7.00;4.50;;;16.60;99.90;;;;;;5013516;28;20235;-56
2022/06/20 01:47:31;;;;;;;5.50;4.43;;;16.70;99.90;;;;;;5012956;28;20259;-56
2022/06/20 01:50:05;;;;;;;8.43;4.50;;;16.80;99.90;;;;;;5013081;28;20302;-56
2022/06/20 01:52:35;;;;;;;9.10;4.30;;;16.70;99.90;;;;;;5013569;28;20210;-56
2022/06/20 01:55:08;;;;;;;9.23;5.20;;;16.70;99.90;;;;;;5013551;28;20263;-56
2022/06/20 01:57:38;;;;;;;9.18;4.80;;;16.80;99.90;;;;;;5013210;28;20625;-56
2022/06/20 02:00:08;;;;;;;9.05;4.30;;;16.70;99.90;;;;;;5013325;28;20274;-56
2022/06/20 02:02:38;;;;;;;6.00;4.45;;;16.70;99.90;;;;;;5013657;28;20168;-56
2022/06/20 02:05:07;;;;;;;4.55;3.60;;;16.70;99.90;;;;;;5013326;28;20642;-57
2022/06/20 02:07:33;;;;;;;9.93;4.28;;;16.40;99.90;;;;;;5013160;28;20223;-56
2022/06/20 02:10:01;;;;;;;6.47;4.80;;;16.30;99.90;;;;;;5012924;28;20172;-57
2022/06/20 02:12:31;;;;;;;7.28;4.28;;;16.20;99.90;;;;;;5012817;28;20203;-56
2022/06/20 02:14:58;;;;;;;6.03;4.90;;;16.00;99.90;;;;;;5012891;28;20222;-56
2022/06/20 02:17:36;;;;;;;11.25;5.78;;;15.90;99.90;;;;;;5012889;28;20165;-56
2022/06/20 02:20:07;;;;;;;10.23;5.55;;;15.90;99.90;;;;;;5013085;28;20225;-57
2022/06/20 02:22:35;;;;;;;11.60;6.53;;;15.50;99.90;;;;;;5013143;28;20168;-56
2022/06/20 02:25:13;;;;;;;11.00;6.45;;;17.40;99.90;;;;;;5012885;28;20543;-57
2022/06/20 02:27:53;;;;;;;10.65;6.57;;;15.50;99.90;;;;;;5012591;28;20637;-56
2022/06/20 02:30:19;;;;;;;10.00;7.05;;;15.30;99.90;;;;;;5012674;28;20176;-56
2022/06/20 02:32:51;;;;;;;11.02;6.60;;;15.10;99.90;;;;;;5012462;28;20218;-57
2022/06/20 02:35:19;;;;;;;12.30;6.43;;;15.10;99.90;;;;;;5012519;28;20163;-56
2022/06/20 02:37:45;;;;;;;12.35;6.78;;;15.10;99.90;;;;;;5012538;28;20175;-57
2022/06/20 02:40:15;;;;;;;9.10;6.40;;;15.20;99.90;;;;;;4994823;28;20176;-56
2022/06/20 02:43:10;;;;;;;9.30;6.68;;;15.10;99.90;;;;;;5012381;28;20593;-57
2022/06/20 02:45:38;;;;;;;10.32;7.63;;;15.10;99.90;;;;;;5012430;28;20211;-56
2022/06/20 02:48:07;;;;;;;9.10;7.55;;;15.10;99.90;;;;;;5012504;28;20179;-56
2022/06/20 02:50:47;;;;;;;8.15;7.35;;;15.10;99.90;;;;;;4995048;28;20219;-56
2022/06/20 02:53:20;;;;;;;9.23;7.28;;;15.10;99.90;;;;;;5012228;28;20180;-56
2022/06/20 02:55:49;;;;;;;7.15;6.32;;;15.20;99.90;;;;;;5012141;28;20219;-55
2022/06/20 02:58:20;;;;;;;7.80;6.88;;;15.20;99.90;;;;;;5012203;28;20537;-56
2022/06/20 03:00:57;;;;;;;6.65;5.50;;;15.30;99.90;;;;;;5012189;28;20168;-56
2022/06/20 03:03:43;;;;;;;8.85;6.25;;;15.30;99.90;;;;;;5012167;28;20581;-57
2022/06/20 03:06:12;;;;;;;11.65;5.85;;;15.30;99.90;;;;;;5012087;28;20204;-55
2022/06/20 03:08:38;;;;;;;9.15;5.85;;;15.30;99.90;;;;;;5012239;28;20164;-56
2022/06/20 03:11:05;;;;;;;7.45;6.07;;;15.30;99.90;;;;;;4994720;28;20203;-56
2022/06/20 03:13:34;;;;;;;9.70;7.20;;;15.20;99.90;;;;;;5012312;28;20234;-55
2022/06/20 03:16:02;;;;;;;11.60;9.65;;;15.30;99.90;;;;;;5012358;28;20183;-57
2022/06/20 03:18:29;;;;;;;14.68;10.30;;;15.20;99.90;;;;;;5015267;28;20242;-55
2022/06/20 03:20:56;;;;;;;18.88;12.73;;;15.10;99.90;;;;;;5015991;28;20164;-56
2022/06/20 03:23:26;;;;;;;14.73;11.48;;;15.20;99.90;;;;;;5016056;28;20258;-56
2022/06/20 03:25:54;;;;;;;11.88;8.63;;;15.10;99.90;;;;;;5015803;28;20302;-55
2022/06/20 03:28:22;;;;;;;11.43;8.23;;;15.30;99.90;;;;;;5015961;28;20173;-56
2022/06/20 03:30:48;;;;;;;10.05;7.93;;;15.10;99.90;;;;;;5015895;28;20194;-55
2022/06/20 03:33:16;;;;;;;10.25;8.02;;;15.20;99.90;;;;;;5015724;28;20279;-57
2022/06/20 03:35:50;;;;;;;8.57;7.13;;;15.30;99.90;;;;;;5016065;28;20176;-56
2022/06/20 03:38:16;;;;;;;12.10;7.10;;;15.30;99.90;;;;;;5015720;28;20155;-57
2022/06/20 03:40:43;;;;;;;10.40;7.10;;;15.30;99.90;;;;;;5015698;28;20657;-57
2022/06/20 03:43:13;;;;;;;13.43;6.55;;;15.40;99.90;;;;;;5015720;28;20168;-57
2022/06/20 03:45:44;;;;;;;13.32;7.10;;;15.10;99.90;;;;;;5015510;28;20211;-57
2022/06/20 03:48:28;;;;;;;10.52;6.78;;;15.30;99.90;;;;;;5015508;28;20168;-58
2022/06/20 03:51:18;;;;;;;12.25;7.40;;;15.40;99.90;;;;;;5015337;28;20625;-57
2022/06/20 03:54:07;;;;;;;9.88;7.30;;;15.40;99.90;;;;;;5015476;28;20208;-57
2022/06/20 03:57:00;;;;;;;12.00;6.90;;;15.40;99.90;;;;;;5015591;28;20168;-56
2022/06/20 03:59:35;;;;;;;8.45;6.72;;;15.50;99.90;;;;;;5015299;28;20189;-57
2022/06/20 04:02:18;;;;;;;9.70;7.28;;;15.40;99.90;;;;;;5015573;28;20199;-57
2022/06/20 04:04:56;;;;;;;12.07;6.55;;;15.40;99.90;;;;;;5015285;28;20702;-56
2022/06/20 04:07:30;;;;;;;9.63;6.80;;;15.50;99.90;;;;;;5015168;28;20164;-57
2022/06/20 04:13:16;;;;;;;10.25;7.22;;;15.40;99.90;;;;;;5015365;28;20557;-57
2022/06/20 04:15:53;;;;;;;11.80;7.60;;;15.50;99.90;;;;;;5007165;28;20238;-57
2022/06/20 04:18:42;;;;;;;14.35;8.48;;;15.50;99.90;;;;;;5015027;28;20198;-57
2022/06/20 04:21:15;;;;;;;13.85;8.20;;;15.40;99.90;;;;;;5014990;28;20164;-57
2022/06/20 04:24:01;;;;;;;18.95;10.00;;;15.50;99.90;;;;;;5014958;28;20230;-57
2022/06/20 04:26:42;;;;;;;14.73;10.40;;;15.40;99.90;;;;;;5014936;28;20184;-57
2022/06/20 04:29:16;;;;;;;15.77;9.20;;;15.20;99.90;;;;;;4996853;28;20527;-57
2022/06/20 04:32:01;;;;;;;12.38;8.50;;;15.40;99.90;;;;;;5014762;28;20202;-57
2022/06/20 04:34:37;;;;;;;14.85;9.68;;;15.40;99.90;;;;;;5015072;28;20160;-57
2022/06/20 04:37:33;;;;;;;14.50;8.25;;;15.50;99.90;;;;;;5014757;28;20183;-56
2022/06/20 04:40:01;;;;;;;13.57;7.07;;;15.40;99.90;;;;;;5014868;28;20180;-57
2022/06/20 04:42:38;;;;;;;10.15;6.97;;;15.30;99.90;;;;;;5014316;28;20172;-57
2022/06/20 04:45:23;;;;;;;14.60;7.93;;;15.40;99.90;;;;;;5014422;28;20203;-56
2022/06/20 04:48:07;;;;;;;10.88;6.03;;;15.40;99.90;;;;;;5014382;28;20191;-56
2022/06/20 04:50:34;;;;;;;9.98;6.13;;;15.50;99.90;;;;;;4996845;28;20586;-56
2022/06/20 04:53:08;;;;;;;9.98;5.57;;;15.50;99.90;;;;;;5014686;28;20175;-57
2022/06/20 04:55:38;;;;;;;8.90;5.68;;;15.50;99.90;;;;;;5014467;28;20207;-56
2022/06/20 04:58:08;;;;;;;10.52;4.90;;;15.50;99.90;;;;;;5014326;28;20215;-55
2022/06/20 05:00:40;;;;;;;12.63;4.78;;;15.50;99.90;;;;;;5014284;28;20164;-57
2022/06/20 05:03:08;;;;;;;9.82;4.95;;;15.60;99.90;;;;;;5014101;28;20165;-56
2022/06/20 05:05:39;;;;;;;11.23;4.97;;;15.60;99.90;;;;;;5014071;28;20208;-56
2022/06/20 05:08:07;;;;;;;10.75;4.93;;;15.60;99.90;;;;;;5013973;28;20184;-57
2022/06/20 05:10:51;;;;;;;9.02;4.32;;;15.50;99.90;;;;;;5014251;28;20524;-56
2022/06/20 05:13:27;;;;;;;10.25;4.90;;;15.60;99.90;;;;;;5014078;28;20168;-56
2022/06/20 05:15:53;;;;;;;11.27;4.75;;;15.60;99.90;;;;;;4996373;28;20179;-57
2022/06/20 05:18:39;;;;;;;8.30;4.47;;;15.60;99.90;;;;;;5014035;28;20512;-56
2022/06/20 05:21:19;;;;;;;12.70;5.20;;;15.60;99.90;;;;;;4996318;28;20266;-56
2022/06/20 05:23:48;;;;;;;9.50;5.03;;;15.50;99.90;;;;;;5017009;28;20164;-56
2022/06/20 05:26:21;;;;;;;10.88;4.40;;;15.50;99.90;;;;;;5013560;28;20204;-56
2022/06/20 05:28:50;;;;;;;6.70;4.18;;;15.30;99.90;;;;;;5013668;28;20168;-57
2022/06/20 05:31:29;;;;;;;7.88;4.63;;;15.20;99.90;;;;;;5013528;28;20214;-57
2022/06/20 05:34:13;;;;;;;12.88;4.47;;;15.30;99.90;;;;;;5013492;28;20179;-57
2022/06/20 05:36:46;;;;;;;7.75;3.55;;;15.30;99.90;;;;;;5013428;28;20178;-57
2022/06/20 05:39:25;;;;;;;18.17;4.18;;;15.20;99.90;;;;;;5013647;28;20538;-57
2022/06/20 05:41:51;;;;;;;8.00;3.97;;;15.10;99.90;;;;;;5012992;28;20258;-56
2022/06/20 05:44:17;;;;;;;7.40;3.25;;;15.10;99.90;;;;;;5013278;28;20279;-56
2022/06/20 05:46:52;;;;;;;7.10;3.20;;;15.10;99.90;;;;;;5013224;28;20705;-56
2022/06/20 05:49:26;;;;;;;7.15;3.38;;;15.00;99.90;;;;;;5012999;28;20164;-56
2022/06/20 05:51:54;;;;;;;8.43;3.22;;;15.00;99.90;;;;;;5012993;28;20200;-57
2022/06/20 05:54:27;;;;;;;9.82;3.67;;;15.00;99.90;;;;;;5013038;28;20191;-57
2022/06/20 05:57:14;;;;;;;6.22;2.80;;;15.00;99.90;;;;;;5012891;28;20251;-56
2022/06/20 05:59:44;;;;;;;10.38;3.17;;;15.00;99.90;;;;;;5013045;28;20708;-57
2022/06/20 06:02:25;;;;;;;6.72;2.75;;;15.10;99.90;;;;;;5012979;28;20534;-57
2022/06/20 06:05:15;;;;;;;8.93;2.80;;;15.10;99.90;;;;;;5012844;28;20708;-57
2022/06/20 06:07:49;;;;;;;5.10;2.50;;;15.10;99.90;;;;;;5012934;28;20212;-56
2022/06/20 06:10:38;;;;;;;10.75;3.13;;;15.20;99.90;;;;;;5013120;28;20538;-58
2022/06/20 06:13:13;;;;;;;9.95;2.53;;;15.00;99.90;;;;;;5012762;28;20172;-58
2022/06/20 06:18:41;;;;;;;3.53;2.08;;;14.90;99.90;;;;;;5012866;28;20652;-57
2022/06/20 06:21:07;;;;;;;9.70;2.85;;;15.00;99.90;;;;;;5012960;28;20275;-57
2022/06/20 06:23:33;;;;;;;9.02;2.72;;;14.80;99.90;;;;;;5012510;28;20200;-57
2022/06/20 06:25:58;;;;;;;16.30;2.60;;;15.00;99.90;;;;;;5012865;28;20203;-56
2022/06/20 06:28:25;;;;;;;16.77;5.00;;;15.10;99.90;;;;;;5012536;28;20171;-56
2022/06/20 06:31:06;;;;;;;6.60;2.47;;;15.00;99.90;;;;;;5012958;28;21239;-56
2022/06/20 06:33:40;;;;;;;6.50;2.90;;;15.00;99.90;;;;;;5012461;28;20263;-56
2022/06/20 06:36:15;;;;;;;9.07;3.63;;;15.00;99.90;;;;;;5012478;28;20541;-57
2022/06/20 06:38:50;;;;;;;8.13;3.15;;;15.10;99.90;;;;;;5012440;28;20629;-56
2022/06/20 06:41:30;;;;;;;7.57;3.15;;;15.20;99.90;;;;;;5012283;28;20182;-57
2022/06/20 06:43:58;;;;;;;9.68;3.03;;;15.20;99.90;;;;;;5012252;28;20182;-57
2022/06/20 06:46:38;;;;;;;9.98;3.17;;;15.30;99.90;;;;;;5012353;28;20211;-57
2022/06/20 06:49:31;;;;;;;6.85;2.95;;;15.30;99.90;;;;;;5012106;28;20160;-56
2022/06/20 06:52:10;;;;;;;7.40;3.33;;;15.30;99.90;;;;;;5011854;28;20656;-56
2022/06/20 06:54:41;;;;;;;14.68;4.75;;;15.30;99.90;;;;;;5012376;28;20218;-56
2022/06/20 06:57:15;;;;;;;8.93;3.55;;;15.30;99.90;;;;;;5011941;28;20230;-56
2022/06/20 07:00:03;;;;;;;7.18;2.83;;;15.40;99.90;;;;;;5012486;28;20179;-56
2022/06/20 07:02:34;;;;;;;8.23;3.15;;;15.50;99.90;;;;;;5012558;28;20175;-56
2022/06/20 07:05:14;;;;;;;8.20;3.28;;;15.70;99.90;;;;;;5012550;28;20675;-57
2022/06/20 07:08:21;;;;;;;11.68;3.55;;;15.60;99.90;;;;;;5012254;28;20250;-56
2022/06/20 07:11:21;;;;;;;10.13;2.83;;;15.70;99.90;;;;;;5012333;28;20175;-57
2022/06/20 07:14:01;;;;;;;7.65;3.63;;;15.70;99.90;;;;;;5008937;28;20176;-58
2022/06/20 07:16:59;;;;;;;9.82;3.97;;;15.80;99.90;;;;;;5012366;28;20160;-57
2022/06/20 07:19:26;;;;;;;9.23;3.60;;;15.90;99.90;;;;;;5011954;28;20175;-57
2022/06/20 07:21:56;;;;;;;11.95;4.28;;;15.90;99.90;;;;;;5011933;28;20160;-58
2022/06/20 07:24:28;;;;;;;9.45;4.20;;;15.90;99.90;;;;;;5011927;28;20164;-57
2022/06/20 07:27:24;;;;;;;11.43;4.80;;;15.90;99.90;;;;;;5012255;28;20216;-56
2022/06/20 07:30:10;;;;;;;11.80;4.40;;;15.90;99.90;;;;;;5011389;28;20202;-51
2022/06/20 07:32:38;;;;;;;13.75;4.50;;;15.90;99.90;;;;;;4972026;28;20646;-58
2022/06/20 07:35:15;;;;;;;15.68;5.32;;;15.80;99.90;;;;;;4971689;28;20711;-55
2022/06/20 07:38:00;;;;;;;18.15;5.93;;;15.90;99.90;;;;;;4976625;28;20165;-57
2022/06/20 07:40:42;;;;;;;16.88;4.80;;;15.90;99.90;;;;;;4991293;28;20709;-57
2022/06/20 07:43:17;;;;;;;13.90;4.70;;;16.10;99.90;;;;;;4991051;28;20220;-56
2022/06/20 07:45:47;;;;;;;12.60;4.00;;;16.10;99.90;;;;;;4990975;28;20299;-57
2022/06/20 07:48:15;;;;;;;8.82;3.08;;;16.10;99.90;;;;;;4991137;28;20180;-57
2022/06/20 07:50:45;;;;;;;7.22;3.78;;;16.20;99.90;;;;;;4990798;28;20267;-56
2022/06/20 07:53:23;;;;;;;11.65;3.13;;;16.30;99.90;;;;;;4990913;28;20179;-56
2022/06/20 07:56:00;;;;;;;14.00;3.20;;;16.50;99.90;;;;;;4990725;28;20530;-60
2022/06/20 07:58:33;;;;;;;3.92;2.38;;;16.50;99.90;;;;;;4991423;28;20575;-58
2022/06/20 08:01:01;;;;;;;6.82;2.63;;;16.60;99.90;;;;;;4991171;28;20204;-56
2022/06/20 08:03:50;;;;;;;9.85;2.80;;;16.70;99.90;;;;;;4992026;28;20160;-53
2022/06/20 08:06:24;;;;;;;7.53;2.53;;;17.00;99.90;;;;;;4994437;28;20266;-55
2022/06/20 08:09:26;;;;;;;6.38;2.67;;;17.30;99.90;;;;;;4994276;28;20192;-54
2022/06/20 08:12:34;;;;;;;7.25;2.70;;;17.50;99.90;;;;;;4994220;28;20172;-52
2022/06/20 08:15:21;;;;;;;10.32;2.70;;;17.50;99.90;;;;;;4974513;28;20669;-56
2022/06/20 08:17:47;;;;;;;7.45;3.05;;;17.90;99.90;;;;;;4994119;28;20176;-56
2022/06/20 08:20:13;;;;;;;7.18;3.45;;;17.90;99.90;;;;;;4994153;28;20552;-56
2022/06/20 08:22:58;;;;;;;10.30;3.72;;;18.00;99.90;;;;;;4993217;28;20268;-58
2022/06/20 08:25:31;;;;;;;12.32;5.05;;;17.90;99.90;;;;;;4993998;28;20215;-54
2022/06/20 08:28:04;;;;;;;11.80;5.60;;;18.10;99.90;;;;;;4994238;28;20653;-56
2022/06/20 08:30:37;;;;;;;15.13;5.65;;;18.20;99.90;;;;;;4994388;28;20169;-54
2022/06/20 08:33:14;;;;;;;16.13;6.22;;;18.40;99.90;;;;;;4993962;28;20169;-54
2022/06/20 08:35:53;;;;;;;14.25;6.10;;;18.30;99.90;;;;;;4994020;28;20604;-54
2022/06/20 08:38:32;;;;;;;14.43;5.45;;;18.30;99.90;;;;;;4993809;28;20203;-54
2022/06/20 08:41:10;;;;;;;10.35;5.70;;;18.20;99.90;;;;;;4994094;28;20188;-57
2022/06/20 08:43:59;;;;;;;14.88;6.38;;;18.30;99.90;;;;;;4992186;28;20180;-57
2022/06/20 08:46:46;;;;;;;11.02;5.45;;;18.70;99.90;;;;;;4993675;28;20274;-57
2022/06/20 08:49:49;;;;;;;12.82;6.68;;;18.60;99.90;;;;;;4976144;28;20516;-56
2022/06/20 08:52:47;;;;;;;13.23;6.47;;;18.30;99.90;;;;;;4993409;28;20177;-56
2022/06/20 08:55:34;;;;;;;14.38;6.63;;;18.20;99.90;;;;;;4950499;28;20220;-55
2022/06/20 08:58:25;;;;;;;12.13;6.07;;;18.10;99.90;;;;;;4993501;28;20164;-55
2022/06/20 09:00:55;;;;;;;9.40;6.18;;;18.40;99.90;;;;;;4993798;28;20177;-55
2022/06/20 09:03:49;;;;;;;13.32;7.18;;;18.50;99.90;;;;;;4993331;28;20684;-55
2022/06/20 09:06:48;;;;;;;11.02;6.10;;;18.80;99.90;;;;;;4993254;28;20209;-55
2022/06/20 09:09:29;;;;;;;12.63;6.00;;;19.00;99.90;;;;;;4993370;28;20181;-55
2022/06/20 09:12:04;;;;;;;11.73;6.82;;;19.60;99.90;;;;;;4993237;28;20165;-55
2022/06/20 09:15:02;;;;;;;12.80;7.22;;;19.50;99.90;;;;;;4993256;28;20661;-53
2022/06/20 09:17:27;;;;;;;12.70;7.35;;;19.10;99.90;;;;;;4993673;28;20184;-54
2022/06/20 09:20:30;;;;;;;12.15;7.47;;;18.80;99.90;;;;;;4992287;28;20176;-54
2022/06/20 09:23:16;;;;;;;11.98;6.90;;;18.70;99.90;;;;;;4993230;28;20661;-54
2022/06/20 09:26:03;;;;;;;16.42;7.28;;;18.80;99.90;;;;;;4993312;28;20204;-54
2022/06/20 09:28:40;;;;;;;14.02;7.80;;;19.00;99.90;;;;;;4991091;28;20172;-54
2022/06/20 09:31:06;;;;;;;14.50;8.00;;;18.90;99.90;;;;;;4974800;28;20181;-56
2022/06/20 09:33:46;;;;;;;12.80;7.50;;;18.90;99.90;;;;;;4992286;28;20180;-55
2022/06/20 09:36:26;;;;;;;13.00;7.28;;;19.30;99.90;;;;;;4975166;28;20173;-56
2022/06/20 09:39:03;;;;;;;16.45;7.13;;;19.60;99.90;;;;;;4992679;28;20637;-56
2022/06/20 09:41:54;;;;;;;11.40;6.18;;;19.40;99.90;;;;;;4993056;28;20192;-56
2022/06/20 09:44:41;;;;;;;16.75;9.95;;;19.00;99.90;;;;;;4992328;28;20207;-56
2022/06/20 09:47:31;;;;;;;14.18;5.15;;;19.10;99.90;;;;;;4992505;28;20173;-56
2022/06/20 09:50:21;;;;;;;9.30;4.68;;;18.70;99.90;;;;;;4992766;28;20271;-56
2022/06/20 09:52:58;;;;;;;10.75;5.18;;;18.60;99.90;;;;;;4992504;28;20169;-55
2022/06/20 09:55:53;;;;;;;16.40;4.97;;;18.70;99.90;;;;;;4992288;28;20541;-56
2022/06/20 09:58:29;;;;;;;9.10;4.15;;;18.70;99.90;;;;;;4992160;28;20169;-56
2022/06/20 10:01:29;;;;;;;13.05;3.83;;;18.70;99.90;;;;;;4992776;28;20235;-56
2022/06/20 10:04:03;;;;;;;7.10;3.03;;;19.00;99.90;;;;;;4967155;28;20600;-55
2022/06/20 10:06:32;;;;;;;8.30;2.45;;;19.10;99.90;;;;;;4992683;28;20209;-55
2022/06/20 10:09:22;;;;;;;5.88;2.45;;;19.40;99.90;;;;;;4992481;28;20160;-55
2022/06/20 10:11:53;;;;;;;7.40;2.70;;;19.40;99.90;;;;;;4992122;28;20541;-56
2022/06/20 10:14:31;;;;;;;9.38;2.58;;;19.60;99.90;;;;;;4992315;28;20177;-56
2022/06/20 10:17:16;;;;;;;6.47;2.40;;;19.90;99.90;;;;;;4992432;28;20215;-56
2022/06/20 10:20:03;;;;;;;6.13;2.10;;;19.90;99.90;;;;;;4992117;28;20164;-56
2022/06/20 10:22:52;;;;;;;5.03;2.10;;;19.70;99.90;;;;;;4992390;28;20172;-55
2022/06/20 10:25:43;;;;;;;6.57;1.85;;;19.50;99.90;;;;;;4991864;28;20220;-54
2022/06/20 10:28:21;;;;;;;5.65;1.70;;;19.30;99.90;;;;;;4953915;28;20239;-55
2022/06/20 10:30:53;;;;;;;7.45;2.03;;;19.20;99.90;;;;;;4991814;28;20714;-55
2022/06/20 10:33:37;;;;;;;8.30;2.28;;;19.30;99.90;;;;;;4991282;28;20219;-55
2022/06/20 10:36:41;;;;;;;5.45;2.10;;;19.30;99.90;;;;;;4991328;28;20176;-54
2022/06/20 10:39:23;;;;;;;3.20;1.60;;;19.50;99.90;;;;;;4932124;28;20694;-54
2022/06/20 10:42:24;;;;;;;9.48;2.05;;;19.40;99.90;;;;;;4991456;28;20172;-55
2022/06/20 10:45:47;;;;;;;15.57;4.35;;;19.50;99.90;;;;;;4990657;28;20216;-56
2022/06/20 10:48:35;;;;;;;3.90;1.58;;;20.40;99.90;;;;;;4912643;29;20179;-56
2022/06/20 10:51:12;;;;;;;2.85;1.75;;;20.60;99.90;;;;;;4912533;29;20233;-56
2022/06/20 10:54:03;;;;;;;4.18;1.70;;;20.90;99.90;;;;;;4977372;28;20188;-56
2022/06/20 10:56:41;;;;;;;4.65;2.00;;;20.70;99.90;;;;;;4991695;28;20320;-55
2022/06/20 10:59:15;;;;;;;5.28;2.20;;;20.80;99.90;;;;;;4991482;28;20205;-54
2022/06/20 11:01:48;;;;;;;4.10;1.88;;;21.10;99.90;;;;;;4991439;28;20513;-54
2022/06/20 11:04:39;;;;;;;2.30;1.60;;;20.80;99.90;;;;;;4991359;28;20247;-54
2022/06/20 11:07:07;;;;;;;3.90;1.90;;;21.10;99.90;;;;;;4991437;28;20280;-54
2022/06/20 11:10:05;;;;;;;4.45;1.70;;;21.10;99.90;;;;;;4991259;28;20164;-54
2022/06/20 11:12:52;;;;;;;4.13;1.80;;;21.10;99.90;;;;;;4975720;28;20187;-55
2022/06/20 11:15:33;;;;;;;3.08;1.52;;;20.90;99.90;;;;;;4991006;28;20211;-54
2022/06/20 11:18:28;;;;;;;5.32;2.13;;;20.90;99.90;;;;;;4990898;28;20568;-55
2022/06/20 11:20:59;;;;;;;6.00;2.78;;;21.30;99.90;;;;;;4991295;28;20169;-55
2022/06/20 11:23:31;;;;;;;6.05;2.20;;;21.40;99.90;;;;;;4991071;28;20541;-55
2022/06/20 11:26:07;;;;;;;8.40;2.17;;;21.90;99.90;;;;;;4991140;28;20212;-54
2022/06/20 11:28:52;;;;;;;6.25;1.85;;;21.70;99.90;;;;;;4990739;28;20567;-55
2022/06/20 11:31:29;;;;;;;8.77;2.25;;;21.50;99.90;;;;;;4991392;28;20226;-55
2022/06/20 11:34:24;;;;;;;5.20;2.10;;;21.60;99.90;;;;;;4991440;28;20165;-55
2022/06/20 11:37:19;;;;;;;6.25;2.40;;;21.50;99.90;;;;;;4991372;28;20264;-55
2022/06/20 11:40:07;;;;;;;5.07;2.20;;;21.70;99.90;;;;;;4992697;28;20511;-55
2022/06/20 11:42:59;;;;;;;3.47;1.65;;;21.40;99.90;;;;;;4994509;28;20179;-55
2022/06/20 11:46:02;;;;;;;6.57;2.55;;;21.70;99.90;;;;;;4994969;28;20619;-55
2022/06/20 11:49:02;;;;;;;6.32;2.05;;;21.80;99.90;;;;;;4995046;28;20172;-55
2022/06/20 11:52:06;;;;;;;5.50;1.73;;;21.80;99.90;;;;;;4994404;28;20220;-55
2022/06/20 11:54:32;;;;;;;4.13;1.85;;;21.70;99.90;;;;;;4994267;28;20172;-55
2022/06/20 11:57:23;;;;;;;3.95;2.13;;;22.00;99.90;;;;;;4994259;28;20175;-55
2022/06/20 12:00:00;;;;;;;2.78;1.70;;;21.50;99.90;;;;;;4993941;28;20203;-55
2022/06/20 12:03:00;;;;;;;7.30;2.17;;;22.00;99.90;;;;;;4994388;28;20171;-55
2022/06/20 12:05:34;;;;;;;4.90;2.05;;;22.20;99.90;;;;;;4994301;28;20228;-55
2022/06/20 12:08:25;;;;;;;5.30;2.10;;;22.30;99.90;;;;;;4994093;28;20256;-55
2022/06/20 12:10:56;;;;;;;5.82;2.17;;;22.50;99.90;;;;;;4994195;28;20721;-55
2022/06/20 12:13:40;;;;;;;6.60;2.30;;;22.70;99.90;;;;;;4994207;28;20169;-55
2022/06/20 12:16:36;;;;;;;4.55;1.83;;;22.80;99.90;;;;;;4994003;28;20160;-55
2022/06/20 12:24:57;;;;;;;3.95;2.10;;;22.40;99.90;;;;;;4994333;28;20216;-55
2022/06/20 12:27:26;;;;;;;7.85;2.35;;;20.80;99.90;;;;;;4976830;28;20172;-55
2022/06/20 12:29:51;;;;;;;3.15;1.73;;;22.80;99.90;;;;;;4993880;28;20179;-55
2022/06/20 12:32:21;;;;;;;3.60;1.83;;;22.90;99.90;;;;;;4993782;28;20164;-55
2022/06/20 12:35:32;;;;;;;7.43;2.40;;;22.70;99.90;;;;;;4993718;28;20168;-55
2022/06/20 12:38:08;;;;;;;4.90;1.98;;;23.00;99.90;;;;;;4994117;28;20211;-56
2022/06/20 12:40:47;;;;;;;7.70;2.30;;;22.90;99.90;;;;;;4994026;28;20218;-55
2022/06/20 12:43:34;;;;;;;4.20;1.88;;;22.70;99.90;;;;;;4993714;28;20191;-56
2022/06/20 12:46:40;;;;;;;6.10;2.35;;;22.40;99.90;;;;;;4993510;28;20219;-55
2022/06/20 12:49:17;;;;;;;4.47;2.58;;;22.60;99.90;;;;;;4993980;28;20176;-55
2022/06/20 12:51:58;;;;;;;7.10;2.45;;;22.30;99.90;;;;;;4992742;28;20239;-55
2022/06/20 12:54:45;;;;;;;3.83;2.20;;;22.50;99.90;;;;;;4993824;28;20161;-55
2022/06/20 12:57:28;;;;;;;4.28;2.22;;;22.70;99.90;;;;;;4993609;28;20169;-55
2022/06/20 13:00:21;;;;;;;4.63;2.38;;;22.70;99.90;;;;;;4993319;28;20650;-54
2022/06/20 13:03:15;;;;;;;6.32;2.35;;;22.80;99.90;;;;;;4992725;28;20226;-55
2022/06/20 13:05:55;;;;;;;6.22;2.22;;;22.70;99.90;;;;;;4993083;28;20255;-55
2022/06/20 13:08:37;;;;;;;7.35;2.35;;;22.30;99.90;;;;;;4974575;28;20208;-55
2022/06/20 13:11:28;;;;;;;4.03;1.77;;;22.40;99.90;;;;;;4992910;28;20179;-55
2022/06/20 13:14:14;;;;;;;4.63;1.95;;;23.10;99.90;;;;;;4993328;28;20160;-56
2022/06/20 13:16:59;;;;;;;4.63;2.25;;;23.00;99.90;;;;;;4992631;28;20192;-56
2022/06/20 13:19:43;;;;;;;4.85;2.38;;;23.20;99.90;;;;;;4993283;28;20255;-55
2022/06/20 13:22:24;;;;;;;6.18;2.17;;;23.10;99.90;;;;;;4992906;28;20731;-54
2022/06/20 13:25:25;;;;;;;3.65;2.53;;;23.50;99.90;;;;;;4992997;28;20214;-55
2022/06/20 13:28:16;;;;;;;6.15;2.35;;;23.20;99.90;;;;;;4975306;28;20171;-54
2022/06/20 13:31:00;;;;;;;5.68;2.40;;;23.30;99.90;;;;;;4992699;28;20248;-54
2022/06/20 13:33:33;;;;;;;4.28;2.38;;;23.10;99.90;;;;;;4993316;28;20183;-54
2022/06/20 13:36:13;;;;;;;6.47;2.50;;;23.00;99.90;;;;;;4992582;28;20179;-54
2022/06/20 13:38:52;;;;;;;5.95;2.50;;;23.00;99.90;;;;;;4992730;28;20168;-55
2022/06/20 13:41:29;;;;;;;6.05;2.40;;;23.30;99.90;;;;;;4992661;28;20505;-54
2022/06/20 13:43:57;;;;;;;6.80;2.47;;;23.20;99.90;;;;;;4992780;28;20641;-55
2022/06/20 13:46:33;;;;;;;4.57;2.42;;;22.80;99.90;;;;;;4992359;28;20213;-54
2022/06/20 13:49:04;;;;;;;4.82;2.20;;;22.80;99.90;;;;;;4992332;28;20196;-55
2022/06/20 13:51:50;;;;;;;9.57;2.70;;;22.70;99.90;;;;;;4992233;28;20212;-54
2022/06/20 13:54:29;;;;;;;7.13;2.58;;;22.80;99.90;;;;;;4992340;28;20181;-55
2022/06/20 13:57:14;;;;;;;4.22;2.53;;;22.60;99.90;;;;;;4975423;28;20176;-55